Towson, MD (21286)

8:33 PM EDT on July 29, 2016 (GMT -0400)
Hampton | | Change Station

Elev 348 ft 39.42 °N, 76.59 °W | Updated 212 days ago

Partly Cloudy
Partly Cloudy
81 °F
Feels Like 85 °F
N
3
Wind Variable Wind from SW
Gusts mph

Today
High -- | Low -- °F
--% Chance of Precip.
Yesterday
High -- | Low -- °F
Precip. -- in
Pressure 29.90 in
Visibility 10.0 miles
Clouds Clear
Heat Index 85 °F
Dew Point 72 °F
Humidity 76%
Rainfall in
Snow Depth Not available.
6:03 AM 8:21 PM
Waning Crescent, 18% visible
METAR KMTN 292350Z 19003KT 10SM SKC 29/24 A2990
Pressure 29.90 in
Visibility 10.0 miles
Clouds Clear
Heat Index 85 °F
Dew Point 72 °F
Humidity 76%
Rainfall in
Snow Depth Not available.
6:03 AM 8:21 PM
Waning Crescent, 18% visible
METAR KMTN 292350Z 19003KT 10SM SKC 29/24 A2990

10-Day Weather Forecast

Almanac

Astronomy

Jul. 29, 2016 Rise Set
Actual Time
Civil Twilight
Nautical Twilight
Astronomical Twilight
Moon
Length of Visible Light
Length of Day
Tomorrow will be .
, % of the Moon is Illuminated

Today's Extremes

State Highs State Lows

Community

WunderPhotos

Upload Photos

1,928,452 photos uploaded!

WunderBlog® & News

Nearby

Air Quality

  Air Quality AQ Index Pollutant
Not available.

Snow Depth

Station Depth Elevation

Earthquake Activity

City Distance Mag. Time & Date
Minimum magnitude displayed is 2.5.

Coastal Water Temperatures

Place Temperature

Stations

Nearby Weather Stations

Station Location Temp. Windchill Dew Point Humidity Wind Precip. Elev Updated Type
                   

Watches & Warnings

There are currently no watches in effect.